sensor_id;sensor_type;location;lat;lon;timestamp;P1;durP1;ratioP1;P2;durP2;ratioP2
31734;SDS011;18313;48.518;9.124;2023-04-23T00:02:18;7.25;;;2.47;;
31734;SDS011;18313;48.518;9.124;2023-04-23T00:04:48;5.25;;;2.28;;
31734;SDS011;18313;48.518;9.124;2023-04-23T00:07:20;6.32;;;2.20;;
31734;SDS011;18313;48.518;9.124;2023-04-23T00:09:48;5.03;;;2.50;;
31734;SDS011;18313;48.518;9.124;2023-04-23T00:12:18;6.68;;;2.33;;
31734;SDS011;18313;48.518;9.124;2023-04-23T00:14:46;4.45;;;2.30;;
31734;SDS011;18313;48.518;9.124;2023-04-23T00:17:13;5.63;;;2.28;;
31734;SDS011;18313;48.518;9.124;2023-04-23T00:19:40;4.32;;;2.03;;
31734;SDS011;18313;48.518;9.124;2023-04-23T00:22:07;7.00;;;2.40;;
31734;SDS011;18313;48.518;9.124;2023-04-23T00:24:34;5.25;;;2.17;;
31734;SDS011;18313;48.518;9.124;2023-04-23T00:27:05;7.88;;;2.65;;
31734;SDS011;18313;48.518;9.124;2023-04-23T00:29:32;5.00;;;2.05;;
31734;SDS011;18313;48.518;9.124;2023-04-23T00:31:59;5.10;;;2.40;;
31734;SDS011;18313;48.518;9.124;2023-04-23T00:34:26;4.78;;;2.00;;
31734;SDS011;18313;48.518;9.124;2023-04-23T00:36:53;7.15;;;2.33;;
31734;SDS011;18313;48.518;9.124;2023-04-23T00:39:20;6.03;;;2.40;;
31734;SDS011;18313;48.518;9.124;2023-04-23T00:41:47;5.25;;;2.35;;
31734;SDS011;18313;48.518;9.124;2023-04-23T00:44:15;5.65;;;2.38;;
31734;SDS011;18313;48.518;9.124;2023-04-23T00:46:42;6.15;;;2.15;;
31734;SDS011;18313;48.518;9.124;2023-04-23T00:49:09;5.30;;;2.20;;
31734;SDS011;18313;48.518;9.124;2023-04-23T00:51:37;6.45;;;2.40;;
31734;SDS011;18313;48.518;9.124;2023-04-23T00:54:04;6.85;;;2.30;;
31734;SDS011;18313;48.518;9.124;2023-04-23T00:56:32;5.78;;;2.42;;
31734;SDS011;18313;48.518;9.124;2023-04-23T00:58:59;7.93;;;2.50;;
31734;SDS011;18313;48.518;9.124;2023-04-23T01:01:29;7.47;;;2.15;;
31734;SDS011;18313;48.518;9.124;2023-04-23T01:03:57;4.97;;;2.17;;
31734;SDS011;18313;48.518;9.124;2023-04-23T01:06:25;4.13;;;2.40;;
31734;SDS011;18313;48.518;9.124;2023-04-23T01:08:54;5.22;;;2.28;;
31734;SDS011;18313;48.518;9.124;2023-04-23T01:11:21;7.95;;;2.22;;
31734;SDS011;18313;48.518;9.124;2023-04-23T01:13:49;8.60;;;2.40;;
31734;SDS011;18313;48.518;9.124;2023-04-23T01:16:16;7.00;;;2.22;;
31734;SDS011;18313;48.518;9.124;2023-04-23T01:18:43;6.72;;;2.33;;
31734;SDS011;18313;48.518;9.124;2023-04-23T01:21:11;6.07;;;2.00;;
31734;SDS011;18313;48.518;9.124;2023-04-23T01:23:40;5.15;;;2.20;;
31734;SDS011;18313;48.518;9.124;2023-04-23T01:26:07;6.63;;;2.53;;
31734;SDS011;18313;48.518;9.124;2023-04-23T01:28:36;5.20;;;1.95;;
31734;SDS011;18313;48.518;9.124;2023-04-23T01:31:04;6.70;;;2.80;;
31734;SDS011;18313;48.518;9.124;2023-04-23T01:33:31;5.07;;;2.00;;
31734;SDS011;18313;48.518;9.124;2023-04-23T01:35:59;4.85;;;2.40;;
31734;SDS011;18313;48.518;9.124;2023-04-23T01:38:29;5.55;;;2.30;;
31734;SDS011;18313;48.518;9.124;2023-04-23T01:40:57;6.53;;;2.28;;
31734;SDS011;18313;48.518;9.124;2023-04-23T01:43:24;6.10;;;2.17;;
31734;SDS011;18313;48.518;9.124;2023-04-23T01:45:52;5.18;;;2.20;;
31734;SDS011;18313;48.518;9.124;2023-04-23T01:48:19;6.93;;;2.42;;
31734;SDS011;18313;48.518;9.124;2023-04-23T01:50:47;7.07;;;2.35;;
31734;SDS011;18313;48.518;9.124;2023-04-23T01:53:15;6.18;;;2.50;;
31734;SDS011;18313;48.518;9.124;2023-04-23T01:55:43;5.85;;;2.50;;
31734;SDS011;18313;48.518;9.124;2023-04-23T01:58:13;6.43;;;2.35;;
31734;SDS011;18313;48.518;9.124;2023-04-23T02:00:40;5.45;;;2.40;;
31734;SDS011;18313;48.518;9.124;2023-04-23T02:03:07;4.05;;;2.35;;
31734;SDS011;18313;48.518;9.124;2023-04-23T02:05:35;4.28;;;2.17;;
31734;SDS011;18313;48.518;9.124;2023-04-23T02:08:03;9.15;;;2.70;;
31734;SDS011;18313;48.518;9.124;2023-04-23T02:10:31;6.25;;;2.90;;
31734;SDS011;18313;48.518;9.124;2023-04-23T02:12:59;6.35;;;2.47;;
31734;SDS011;18313;48.518;9.124;2023-04-23T02:15:28;6.57;;;2.35;;
31734;SDS011;18313;48.518;9.124;2023-04-23T02:17:55;6.63;;;2.60;;
31734;SDS011;18313;48.518;9.124;2023-04-23T02:20:22;5.47;;;2.58;;
31734;SDS011;18313;48.518;9.124;2023-04-23T02:22:50;6.55;;;2.45;;
31734;SDS011;18313;48.518;9.124;2023-04-23T02:25:17;6.60;;;2.83;;
31734;SDS011;18313;48.518;9.124;2023-04-23T02:27:47;5.30;;;2.17;;
31734;SDS011;18313;48.518;9.124;2023-04-23T02:30:14;5.03;;;2.60;;
31734;SDS011;18313;48.518;9.124;2023-04-23T02:35:16;4.75;;;2.40;;
31734;SDS011;18313;48.518;9.124;2023-04-23T02:37:44;3.78;;;1.95;;
31734;SDS011;18313;48.518;9.124;2023-04-23T02:40:11;6.05;;;2.85;;
31734;SDS011;18313;48.518;9.124;2023-04-23T02:42:38;7.88;;;2.70;;
31734;SDS011;18313;48.518;9.124;2023-04-23T02:45:09;4.90;;;2.60;;
31734;SDS011;18313;48.518;9.124;2023-04-23T02:47:37;4.78;;;2.40;;
31734;SDS011;18313;48.518;9.124;2023-04-23T02:50:04;4.90;;;2.65;;
31734;SDS011;18313;48.518;9.124;2023-04-23T02:52:33;5.20;;;2.25;;
31734;SDS011;18313;48.518;9.124;2023-04-23T02:55:00;6.22;;;2.75;;
31734;SDS011;18313;48.518;9.124;2023-04-23T02:57:27;4.60;;;2.50;;
31734;SDS011;18313;48.518;9.124;2023-04-23T02:59:55;4.82;;;2.85;;
31734;SDS011;18313;48.518;9.124;2023-04-23T03:02:22;6.15;;;2.70;;
31734;SDS011;18313;48.518;9.124;2023-04-23T03:04:49;5.22;;;2.90;;
31734;SDS011;18313;48.518;9.124;2023-04-23T03:07:17;6.07;;;2.88;;
31734;SDS011;18313;48.518;9.124;2023-04-23T03:09:44;5.78;;;2.38;;
31734;SDS011;18313;48.518;9.124;2023-04-23T03:12:12;6.03;;;2.60;;
31734;SDS011;18313;48.518;9.124;2023-04-23T03:14:39;5.28;;;2.63;;
31734;SDS011;18313;48.518;9.124;2023-04-23T03:17:07;5.60;;;2.85;;
31734;SDS011;18313;48.518;9.124;2023-04-23T03:19:34;5.70;;;2.88;;
31734;SDS011;18313;48.518;9.124;2023-04-23T03:22:01;6.13;;;2.75;;
31734;SDS011;18313;48.518;9.124;2023-04-23T03:24:33;5.03;;;2.42;;
31734;SDS011;18313;48.518;9.124;2023-04-23T03:27:01;8.27;;;2.60;;
31734;SDS011;18313;48.518;9.124;2023-04-23T03:29:28;7.38;;;2.47;;
31734;SDS011;18313;48.518;9.124;2023-04-23T03:31:55;4.32;;;2.38;;
31734;SDS011;18313;48.518;9.124;2023-04-23T03:34:23;3.97;;;2.38;;
31734;SDS011;18313;48.518;9.124;2023-04-23T03:36:50;5.00;;;2.50;;
31734;SDS011;18313;48.518;9.124;2023-04-23T03:39:17;5.93;;;2.90;;
31734;SDS011;18313;48.518;9.124;2023-04-23T03:41:44;6.90;;;2.85;;
31734;SDS011;18313;48.518;9.124;2023-04-23T03:44:12;4.38;;;2.55;;
31734;SDS011;18313;48.518;9.124;2023-04-23T03:46:39;4.30;;;2.38;;
31734;SDS011;18313;48.518;9.124;2023-04-23T03:49:06;3.75;;;2.40;;
31734;SDS011;18313;48.518;9.124;2023-04-23T03:51:33;4.72;;;2.75;;
31734;SDS011;18313;48.518;9.124;2023-04-23T03:54:01;3.65;;;2.47;;
31734;SDS011;18313;48.518;9.124;2023-04-23T03:56:28;4.43;;;2.40;;
31734;SDS011;18313;48.518;9.124;2023-04-23T03:58:55;4.53;;;2.50;;
31734;SDS011;18313;48.518;9.124;2023-04-23T04:01:22;5.40;;;2.60;;
31734;SDS011;18313;48.518;9.124;2023-04-23T04:03:49;6.85;;;2.78;;
31734;SDS011;18313;48.518;9.124;2023-04-23T04:06:17;4.10;;;2.22;;
31734;SDS011;18313;48.518;9.124;2023-04-23T04:08:44;4.05;;;2.30;;
31734;SDS011;18313;48.518;9.124;2023-04-23T04:11:11;4.85;;;2.50;;
31734;SDS011;18313;48.518;9.124;2023-04-23T04:13:38;5.10;;;2.63;;
31734;SDS011;18313;48.518;9.124;2023-04-23T04:16:05;3.78;;;2.10;;
31734;SDS011;18313;48.518;9.124;2023-04-23T04:18:33;5.20;;;2.33;;
31734;SDS011;18313;48.518;9.124;2023-04-23T04:21:00;4.45;;;2.30;;
31734;SDS011;18313;48.518;9.124;2023-04-23T04:23:28;3.30;;;2.10;;
31734;SDS011;18313;48.518;9.124;2023-04-23T04:25:55;4.38;;;2.20;;
31734;SDS011;18313;48.518;9.124;2023-04-23T04:28:23;3.63;;;2.20;;
31734;SDS011;18313;48.518;9.124;2023-04-23T04:30:54;4.22;;;2.20;;
31734;SDS011;18313;48.518;9.124;2023-04-23T04:33:23;3.20;;;1.90;;
31734;SDS011;18313;48.518;9.124;2023-04-23T04:35:51;4.03;;;2.10;;
31734;SDS011;18313;48.518;9.124;2023-04-23T04:38:20;3.95;;;2.15;;
31734;SDS011;18313;48.518;9.124;2023-04-23T04:40:48;3.20;;;1.90;;
31734;SDS011;18313;48.518;9.124;2023-04-23T04:43:16;5.55;;;2.55;;
31734;SDS011;18313;48.518;9.124;2023-04-23T04:45:43;4.07;;;2.08;;
31734;SDS011;18313;48.518;9.124;2023-04-23T04:48:11;2.72;;;1.70;;
31734;SDS011;18313;48.518;9.124;2023-04-23T04:50:38;2.80;;;1.50;;
31734;SDS011;18313;48.518;9.124;2023-04-23T04:53:06;2.53;;;1.23;;
31734;SDS011;18313;48.518;9.124;2023-04-23T04:55:33;2.10;;;1.45;;
31734;SDS011;18313;48.518;9.124;2023-04-23T04:58:01;2.55;;;1.40;;
31734;SDS011;18313;48.518;9.124;2023-04-23T05:00:28;4.45;;;2.25;;
31734;SDS011;18313;48.518;9.124;2023-04-23T05:02:57;4.10;;;2.70;;
31734;SDS011;18313;48.518;9.124;2023-04-23T05:05:25;3.97;;;2.53;;
31734;SDS011;18313;48.518;9.124;2023-04-23T05:07:53;4.15;;;2.30;;
31734;SDS011;18313;48.518;9.124;2023-04-23T05:10:20;5.03;;;2.30;;
31734;SDS011;18313;48.518;9.124;2023-04-23T05:12:48;5.40;;;2.50;;
31734;SDS011;18313;48.518;9.124;2023-04-23T05:15:17;7.57;;;2.00;;
31734;SDS011;18313;48.518;9.124;2023-04-23T05:17:44;3.10;;;2.00;;
31734;SDS011;18313;48.518;9.124;2023-04-23T05:20:11;7.10;;;2.00;;
31734;SDS011;18313;48.518;9.124;2023-04-23T05:22:40;5.07;;;2.10;;
31734;SDS011;18313;48.518;9.124;2023-04-23T05:25:08;3.30;;;1.80;;
31734;SDS011;18313;48.518;9.124;2023-04-23T05:27:39;5.10;;;1.88;;
31734;SDS011;18313;48.518;9.124;2023-04-23T05:30:07;4.55;;;1.80;;
31734;SDS011;18313;48.518;9.124;2023-04-23T05:32:36;2.33;;;1.40;;
31734;SDS011;18313;48.518;9.124;2023-04-23T05:35:04;2.85;;;1.40;;
31734;SDS011;18313;48.518;9.124;2023-04-23T05:37:32;2.30;;;1.50;;
31734;SDS011;18313;48.518;9.124;2023-04-23T05:39:59;2.28;;;1.35;;
31734;SDS011;18313;48.518;9.124;2023-04-23T05:42:28;3.55;;;1.75;;
31734;SDS011;18313;48.518;9.124;2023-04-23T05:44:55;4.97;;;1.60;;
31734;SDS011;18313;48.518;9.124;2023-04-23T05:47:24;1.83;;;1.38;;
31734;SDS011;18313;48.518;9.124;2023-04-23T05:49:52;3.03;;;1.63;;
31734;SDS011;18313;48.518;9.124;2023-04-23T05:52:19;1.98;;;1.42;;
31734;SDS011;18313;48.518;9.124;2023-04-23T05:54:46;3.70;;;1.65;;
31734;SDS011;18313;48.518;9.124;2023-04-23T05:57:14;3.47;;;1.60;;
31734;SDS011;18313;48.518;9.124;2023-04-23T05:59:41;3.95;;;1.60;;
31734;SDS011;18313;48.518;9.124;2023-04-23T06:02:09;6.38;;;1.60;;
31734;SDS011;18313;48.518;9.124;2023-04-23T06:04:36;3.47;;;1.42;;
31734;SDS011;18313;48.518;9.124;2023-04-23T06:07:05;2.97;;;1.50;;
31734;SDS011;18313;48.518;9.124;2023-04-23T06:09:32;3.30;;;1.55;;
31734;SDS011;18313;48.518;9.124;2023-04-23T06:12:00;1.95;;;1.20;;
31734;SDS011;18313;48.518;9.124;2023-04-23T06:14:28;1.58;;;1.10;;
31734;SDS011;18313;48.518;9.124;2023-04-23T06:16:56;2.45;;;1.20;;
31734;SDS011;18313;48.518;9.124;2023-04-23T06:19:23;1.45;;;0.90;;
31734;SDS011;18313;48.518;9.124;2023-04-23T06:21:52;3.97;;;1.10;;
31734;SDS011;18313;48.518;9.124;2023-04-23T06:24:21;1.80;;;0.90;;
31734;SDS011;18313;48.518;9.124;2023-04-23T06:26:48;2.70;;;0.88;;
31734;SDS011;18313;48.518;9.124;2023-04-23T06:29:16;1.70;;;0.73;;
31734;SDS011;18313;48.518;9.124;2023-04-23T06:31:43;1.40;;;0.65;;
31734;SDS011;18313;48.518;9.124;2023-04-23T06:34:10;1.92;;;0.80;;
31734;SDS011;18313;48.518;9.124;2023-04-23T06:36:38;0.77;;;0.40;;
31734;SDS011;18313;48.518;9.124;2023-04-23T06:39:05;1.77;;;0.43;;
31734;SDS011;18313;48.518;9.124;2023-04-23T06:41:32;1.40;;;0.60;;
31734;SDS011;18313;48.518;9.124;2023-04-23T06:43:59;1.10;;;0.63;;
31734;SDS011;18313;48.518;9.124;2023-04-23T06:46:27;1.17;;;0.68;;
31734;SDS011;18313;48.518;9.124;2023-04-23T06:48:54;0.77;;;0.60;;
31734;SDS011;18313;48.518;9.124;2023-04-23T06:51:23;3.55;;;0.70;;
31734;SDS011;18313;48.518;9.124;2023-04-23T06:53:52;1.90;;;0.70;;
31734;SDS011;18313;48.518;9.124;2023-04-23T06:56:19;1.67;;;0.70;;
31734;SDS011;18313;48.518;9.124;2023-04-23T06:58:47;1.05;;;0.65;;
31734;SDS011;18313;48.518;9.124;2023-04-23T07:01:15;1.50;;;0.65;;
31734;SDS011;18313;48.518;9.124;2023-04-23T07:03:42;1.02;;;0.70;;
31734;SDS011;18313;48.518;9.124;2023-04-23T07:06:12;1.13;;;0.68;;
31734;SDS011;18313;48.518;9.124;2023-04-23T07:08:39;0.80;;;0.50;;
31734;SDS011;18313;48.518;9.124;2023-04-23T07:11:06;1.13;;;0.63;;
31734;SDS011;18313;48.518;9.124;2023-04-23T07:13:34;2.63;;;0.70;;
31734;SDS011;18313;48.518;9.124;2023-04-23T07:16:01;1.20;;;0.80;;
31734;SDS011;18313;48.518;9.124;2023-04-23T07:18:28;1.92;;;0.90;;
31734;SDS011;18313;48.518;9.124;2023-04-23T07:20:55;2.00;;;0.70;;
31734;SDS011;18313;48.518;9.124;2023-04-23T07:23:22;1.25;;;0.82;;
31734;SDS011;18313;48.518;9.124;2023-04-23T07:25:49;2.28;;;0.77;;
31734;SDS011;18313;48.518;9.124;2023-04-23T07:28:17;1.10;;;0.70;;
31734;SDS011;18313;48.518;9.124;2023-04-23T07:30:44;2.80;;;0.70;;
31734;SDS011;18313;48.518;9.124;2023-04-23T07:33:11;4.03;;;1.75;;
31734;SDS011;18313;48.518;9.124;2023-04-23T07:35:39;1.33;;;0.93;;
31734;SDS011;18313;48.518;9.124;2023-04-23T07:38:06;2.22;;;1.40;;
31734;SDS011;18313;48.518;9.124;2023-04-23T07:40:33;8.15;;;3.22;;
31734;SDS011;18313;48.518;9.124;2023-04-23T07:43:02;1.42;;;0.60;;
31734;SDS011;18313;48.518;9.124;2023-04-23T07:45:29;3.28;;;0.80;;
31734;SDS011;18313;48.518;9.124;2023-04-23T07:47:56;1.90;;;0.65;;
31734;SDS011;18313;48.518;9.124;2023-04-23T07:50:24;3.05;;;1.80;;
31734;SDS011;18313;48.518;9.124;2023-04-23T07:52:51;1.60;;;0.90;;
31734;SDS011;18313;48.518;9.124;2023-04-23T07:55:18;1.40;;;0.70;;
31734;SDS011;18313;48.518;9.124;2023-04-23T07:57:47;2.90;;;0.65;;
31734;SDS011;18313;48.518;9.124;2023-04-23T08:00:14;1.63;;;0.60;;
31734;SDS011;18313;48.518;9.124;2023-04-23T08:02:41;1.52;;;0.70;;
31734;SDS011;18313;48.518;9.124;2023-04-23T08:05:09;1.05;;;0.60;;
31734;SDS011;18313;48.518;9.124;2023-04-23T08:07:36;2.72;;;1.55;;
31734;SDS011;18313;48.518;9.124;2023-04-23T08:10:03;1.48;;;0.63;;
31734;SDS011;18313;48.518;9.124;2023-04-23T08:12:31;0.93;;;0.47;;
31734;SDS011;18313;48.518;9.124;2023-04-23T08:15:01;2.03;;;0.57;;
31734;SDS011;18313;48.518;9.124;2023-04-23T08:17:29;2.22;;;0.60;;
31734;SDS011;18313;48.518;9.124;2023-04-23T08:19:56;0.65;;;0.60;;
31734;SDS011;18313;48.518;9.124;2023-04-23T08:22:23;2.45;;;0.70;;
31734;SDS011;18313;48.518;9.124;2023-04-23T08:24:50;1.58;;;0.68;;
31734;SDS011;18313;48.518;9.124;2023-04-23T08:27:18;1.05;;;0.60;;
31734;SDS011;18313;48.518;9.124;2023-04-23T08:29:45;1.13;;;0.57;;
31734;SDS011;18313;48.518;9.124;2023-04-23T08:32:12;0.73;;;0.50;;
31734;SDS011;18313;48.518;9.124;2023-04-23T08:34:39;1.73;;;0.93;;
31734;SDS011;18313;48.518;9.124;2023-04-23T08:37:07;1.02;;;0.70;;
31734;SDS011;18313;48.518;9.124;2023-04-23T08:39:48;4.63;;;0.70;;
31734;SDS011;18313;48.518;9.124;2023-04-23T09:06:18;1.42;;;0.50;;
31734;SDS011;18313;48.518;9.124;2023-04-23T09:09:05;2.13;;;0.70;;
31734;SDS011;18313;48.518;9.124;2023-04-23T09:11:35;1.40;;;1.23;;
31734;SDS011;18313;48.518;9.124;2023-04-23T09:14:03;0.98;;;0.60;;
31734;SDS011;18313;48.518;9.124;2023-04-23T09:16:31;1.00;;;0.55;;
31734;SDS011;18313;48.518;9.124;2023-04-23T09:18:58;1.40;;;0.60;;
31734;SDS011;18313;48.518;9.124;2023-04-23T09:21:25;1.45;;;0.70;;
31734;SDS011;18313;48.518;9.124;2023-04-23T09:23:53;5.20;;;0.70;;
31734;SDS011;18313;48.518;9.124;2023-04-23T09:26:20;2.63;;;0.65;;
31734;SDS011;18313;48.518;9.124;2023-04-23T09:28:49;1.60;;;0.60;;
31734;SDS011;18313;48.518;9.124;2023-04-23T09:31:20;0.90;;;0.60;;
31734;SDS011;18313;48.518;9.124;2023-04-23T09:33:49;2.13;;;1.00;;
31734;SDS011;18313;48.518;9.124;2023-04-23T09:36:21;0.77;;;0.50;;
31734;SDS011;18313;48.518;9.124;2023-04-23T09:38:55;2.45;;;0.63;;
31734;SDS011;18313;48.518;9.124;2023-04-23T09:41:26;1.50;;;0.60;;
31734;SDS011;18313;48.518;9.124;2023-04-23T09:43:55;2.22;;;0.60;;
31734;SDS011;18313;48.518;9.124;2023-04-23T09:46:35;3.55;;;0.90;;
31734;SDS011;18313;48.518;9.124;2023-04-23T09:49:07;1.15;;;0.68;;
31734;SDS011;18313;48.518;9.124;2023-04-23T09:51:40;1.73;;;0.70;;
31734;SDS011;18313;48.518;9.124;2023-04-23T09:54:21;1.30;;;0.60;;
31734;SDS011;18313;48.518;9.124;2023-04-23T09:56:51;1.92;;;0.70;;
31734;SDS011;18313;48.518;9.124;2023-04-23T09:59:28;1.55;;;0.55;;
31734;SDS011;18313;48.518;9.124;2023-04-23T10:02:00;0.90;;;0.57;;
31734;SDS011;18313;48.518;9.124;2023-04-23T10:04:29;2.00;;;0.50;;
31734;SDS011;18313;48.518;9.124;2023-04-23T10:06:58;1.73;;;0.75;;
31734;SDS011;18313;48.518;9.124;2023-04-23T10:09:44;0.63;;;0.50;;
31734;SDS011;18313;48.518;9.124;2023-04-23T10:12:12;0.93;;;0.60;;
31734;SDS011;18313;48.518;9.124;2023-04-23T10:14:43;3.05;;;1.52;;
31734;SDS011;18313;48.518;9.124;2023-04-23T10:17:11;1.05;;;0.60;;
31734;SDS011;18313;48.518;9.124;2023-04-23T10:19:39;3.00;;;0.73;;
31734;SDS011;18313;48.518;9.124;2023-04-23T10:22:09;0.85;;;0.50;;
31734;SDS011;18313;48.518;9.124;2023-04-23T10:24:40;0.80;;;0.45;;
31734;SDS011;18313;48.518;9.124;2023-04-23T10:27:10;2.97;;;0.88;;
31734;SDS011;18313;48.518;9.124;2023-04-23T10:29:58;1.50;;;0.40;;
31734;SDS011;18313;48.518;9.124;2023-04-23T10:32:26;2.03;;;0.60;;
31734;SDS011;18313;48.518;9.124;2023-04-23T10:34:54;1.15;;;0.50;;
31734;SDS011;18313;48.518;9.124;2023-04-23T10:37:40;1.30;;;0.57;;
31734;SDS011;18313;48.518;9.124;2023-04-23T10:40:09;1.33;;;0.50;;
31734;SDS011;18313;48.518;9.124;2023-04-23T10:42:40;1.13;;;0.50;;
31734;SDS011;18313;48.518;9.124;2023-04-23T10:45:16;0.75;;;0.60;;
31734;SDS011;18313;48.518;9.124;2023-04-23T10:47:47;2.20;;;0.65;;
31734;SDS011;18313;48.518;9.124;2023-04-23T10:50:21;1.67;;;0.60;;
31734;SDS011;18313;48.518;9.124;2023-04-23T10:52:51;0.95;;;0.50;;
31734;SDS011;18313;48.518;9.124;2023-04-23T10:55:23;2.40;;;0.70;;
31734;SDS011;18313;48.518;9.124;2023-04-23T10:58:04;1.20;;;0.60;;
31734;SDS011;18313;48.518;9.124;2023-04-23T11:00:45;1.15;;;0.70;;
31734;SDS011;18313;48.518;9.124;2023-04-23T11:06:11;0.95;;;0.52;;
31734;SDS011;18313;48.518;9.124;2023-04-23T11:08:51;1.25;;;0.60;;
31734;SDS011;18313;48.518;9.124;2023-04-23T11:11:23;1.98;;;0.60;;
31734;SDS011;18313;48.518;9.124;2023-04-23T11:14:11;2.17;;;0.60;;
31734;SDS011;18313;48.518;9.124;2023-04-23T11:16:41;0.98;;;0.70;;
31734;SDS011;18313;48.518;9.124;2023-04-23T11:19:09;2.10;;;0.80;;
31734;SDS011;18313;48.518;9.124;2023-04-23T11:21:57;1.42;;;0.70;;
31734;SDS011;18313;48.518;9.124;2023-04-23T11:24:30;1.48;;;0.70;;
31734;SDS011;18313;48.518;9.124;2023-04-23T11:27:15;1.17;;;0.60;;
31734;SDS011;18313;48.518;9.124;2023-04-23T11:29:43;1.98;;;0.55;;
31734;SDS011;18313;48.518;9.124;2023-04-23T11:32:12;1.23;;;0.60;;
31734;SDS011;18313;48.518;9.124;2023-04-23T11:34:43;2.47;;;0.60;;
31734;SDS011;18313;48.518;9.124;2023-04-23T11:37:12;0.95;;;0.50;;
31734;SDS011;18313;48.518;9.124;2023-04-23T11:39:41;1.20;;;0.60;;
31734;SDS011;18313;48.518;9.124;2023-04-23T11:42:13;2.50;;;0.60;;
31734;SDS011;18313;48.518;9.124;2023-04-23T11:44:42;1.17;;;0.57;;
31734;SDS011;18313;48.518;9.124;2023-04-23T11:47:10;2.08;;;0.70;;
31734;SDS011;18313;48.518;9.124;2023-04-23T11:49:39;3.00;;;0.73;;
31734;SDS011;18313;48.518;9.124;2023-04-23T11:52:11;1.88;;;0.57;;
31734;SDS011;18313;48.518;9.124;2023-04-23T11:54:40;1.60;;;0.70;;
31734;SDS011;18313;48.518;9.124;2023-04-23T11:57:07;1.13;;;0.70;;
31734;SDS011;18313;48.518;9.124;2023-04-23T11:59:36;0.85;;;0.70;;
31734;SDS011;18313;48.518;9.124;2023-04-23T12:02:03;2.28;;;0.60;;
31734;SDS011;18313;48.518;9.124;2023-04-23T12:04:31;1.00;;;0.60;;
31734;SDS011;18313;48.518;9.124;2023-04-23T12:06:59;1.02;;;0.60;;
31734;SDS011;18313;48.518;9.124;2023-04-23T12:09:26;2.45;;;0.60;;
31734;SDS011;18313;48.518;9.124;2023-04-23T12:11:55;0.88;;;0.55;;
31734;SDS011;18313;48.518;9.124;2023-04-23T12:14:25;1.25;;;0.50;;
31734;SDS011;18313;48.518;9.124;2023-04-23T12:16:55;7.07;;;0.80;;
31734;SDS011;18313;48.518;9.124;2023-04-23T12:19:25;1.92;;;0.70;;
31734;SDS011;18313;48.518;9.124;2023-04-23T12:21:55;2.00;;;0.52;;
31734;SDS011;18313;48.518;9.124;2023-04-23T12:24:24;1.15;;;0.63;;
31734;SDS011;18313;48.518;9.124;2023-04-23T12:26:58;1.75;;;0.68;;
31734;SDS011;18313;48.518;9.124;2023-04-23T12:29:28;0.57;;;0.40;;
31734;SDS011;18313;48.518;9.124;2023-04-23T12:31:57;2.13;;;0.70;;
31734;SDS011;18313;48.518;9.124;2023-04-23T12:34:25;2.40;;;0.68;;
31734;SDS011;18313;48.518;9.124;2023-04-23T12:36:53;2.40;;;0.60;;
31734;SDS011;18313;48.518;9.124;2023-04-23T12:42:00;0.52;;;0.50;;
31734;SDS011;18313;48.518;9.124;2023-04-23T12:44:31;2.03;;;0.80;;
31734;SDS011;18313;48.518;9.124;2023-04-23T12:49:34;0.65;;;0.50;;
31734;SDS011;18313;48.518;9.124;2023-04-23T12:52:02;1.80;;;0.70;;
31734;SDS011;18313;48.518;9.124;2023-04-23T12:54:31;0.93;;;0.50;;
31734;SDS011;18313;48.518;9.124;2023-04-23T12:57:03;1.10;;;0.52;;
31734;SDS011;18313;48.518;9.124;2023-04-23T12:59:32;1.20;;;0.50;;
31734;SDS011;18313;48.518;9.124;2023-04-23T13:01:59;2.17;;;0.60;;
31734;SDS011;18313;48.518;9.124;2023-04-23T13:04:29;1.10;;;0.57;;
31734;SDS011;18313;48.518;9.124;2023-04-23T13:07:00;0.98;;;0.47;;
31734;SDS011;18313;48.518;9.124;2023-04-23T13:09:27;1.88;;;0.70;;
31734;SDS011;18313;48.518;9.124;2023-04-23T13:11:55;1.15;;;0.60;;
31734;SDS011;18313;48.518;9.124;2023-04-23T13:14:23;2.05;;;0.60;;
31734;SDS011;18313;48.518;9.124;2023-04-23T13:16:50;1.60;;;0.80;;
31734;SDS011;18313;48.518;9.124;2023-04-23T13:19:18;1.90;;;0.80;;
31734;SDS011;18313;48.518;9.124;2023-04-23T13:21:45;1.83;;;0.68;;
31734;SDS011;18313;48.518;9.124;2023-04-23T13:24:12;1.13;;;0.50;;
31734;SDS011;18313;48.518;9.124;2023-04-23T13:26:39;0.75;;;0.60;;
31734;SDS011;18313;48.518;9.124;2023-04-23T13:29:06;2.50;;;0.90;;
31734;SDS011;18313;48.518;9.124;2023-04-23T13:31:33;3.53;;;0.90;;
31734;SDS011;18313;48.518;9.124;2023-04-23T13:34:00;2.15;;;0.77;;
31734;SDS011;18313;48.518;9.124;2023-04-23T13:36:28;1.45;;;0.70;;
31734;SDS011;18313;48.518;9.124;2023-04-23T13:38:56;1.48;;;0.60;;
31734;SDS011;18313;48.518;9.124;2023-04-23T13:41:23;2.58;;;0.70;;
31734;SDS011;18313;48.518;9.124;2023-04-23T13:43:50;1.98;;;0.73;;
31734;SDS011;18313;48.518;9.124;2023-04-23T13:46:18;4.00;;;0.70;;
31734;SDS011;18313;48.518;9.124;2023-04-23T13:48:45;0.95;;;0.60;;
31734;SDS011;18313;48.518;9.124;2023-04-23T13:51:13;1.48;;;0.63;;
31734;SDS011;18313;48.518;9.124;2023-04-23T13:54:00;2.83;;;0.70;;
31734;SDS011;18313;48.518;9.124;2023-04-23T13:56:28;2.28;;;0.70;;
31734;SDS011;18313;48.518;9.124;2023-04-23T13:58:56;3.13;;;0.77;;
31734;SDS011;18313;48.518;9.124;2023-04-23T14:01:44;1.13;;;0.70;;
31734;SDS011;18313;48.518;9.124;2023-04-23T14:04:14;1.02;;;0.60;;
31734;SDS011;18313;48.518;9.124;2023-04-23T14:06:42;2.92;;;0.70;;
31734;SDS011;18313;48.518;9.124;2023-04-23T14:09:10;1.50;;;0.60;;
31734;SDS011;18313;48.518;9.124;2023-04-23T14:11:37;2.65;;;0.68;;
31734;SDS011;18313;48.518;9.124;2023-04-23T14:14:07;2.15;;;0.70;;
31734;SDS011;18313;48.518;9.124;2023-04-23T14:16:35;2.05;;;0.60;;
31734;SDS011;18313;48.518;9.124;2023-04-23T14:19:02;2.05;;;0.70;;
31734;SDS011;18313;48.518;9.124;2023-04-23T14:21:29;3.15;;;0.90;;
31734;SDS011;18313;48.518;9.124;2023-04-23T14:26:43;1.40;;;0.68;;
31734;SDS011;18313;48.518;9.124;2023-04-23T14:31:48;2.97;;;1.00;;
31734;SDS011;18313;48.518;9.124;2023-04-23T14:34:16;4.82;;;1.13;;
31734;SDS011;18313;48.518;9.124;2023-04-23T14:36:43;1.50;;;0.60;;
31734;SDS011;18313;48.518;9.124;2023-04-23T14:39:11;4.47;;;1.30;;
31734;SDS011;18313;48.518;9.124;2023-04-23T14:41:39;4.60;;;0.90;;
31734;SDS011;18313;48.518;9.124;2023-04-23T14:44:06;7.30;;;1.98;;
31734;SDS011;18313;48.518;9.124;2023-04-23T14:46:33;1.05;;;0.70;;
31734;SDS011;18313;48.518;9.124;2023-04-23T14:49:01;2.08;;;0.73;;
31734;SDS011;18313;48.518;9.124;2023-04-23T14:51:28;4.60;;;1.15;;
31734;SDS011;18313;48.518;9.124;2023-04-23T14:53:55;2.83;;;1.30;;
31734;SDS011;18313;48.518;9.124;2023-04-23T14:56:22;5.00;;;1.60;;
31734;SDS011;18313;48.518;9.124;2023-04-23T14:58:49;3.20;;;0.88;;
31734;SDS011;18313;48.518;9.124;2023-04-23T15:01:16;1.92;;;0.80;;
31734;SDS011;18313;48.518;9.124;2023-04-23T15:03:44;1.45;;;0.70;;
31734;SDS011;18313;48.518;9.124;2023-04-23T15:06:12;2.65;;;0.80;;
31734;SDS011;18313;48.518;9.124;2023-04-23T15:08:39;2.80;;;0.70;;
31734;SDS011;18313;48.518;9.124;2023-04-23T15:11:06;2.47;;;0.80;;
31734;SDS011;18313;48.518;9.124;2023-04-23T15:13:54;2.40;;;0.90;;
31734;SDS011;18313;48.518;9.124;2023-04-23T15:16:28;4.53;;;1.00;;
31734;SDS011;18313;48.518;9.124;2023-04-23T15:19:03;2.05;;;0.70;;
31734;SDS011;18313;48.518;9.124;2023-04-23T15:21:35;3.22;;;0.80;;
31734;SDS011;18313;48.518;9.124;2023-04-23T15:24:03;1.58;;;0.70;;
31734;SDS011;18313;48.518;9.124;2023-04-23T15:26:30;1.88;;;0.68;;
31734;SDS011;18313;48.518;9.124;2023-04-23T15:28:59;1.88;;;0.50;;
31734;SDS011;18313;48.518;9.124;2023-04-23T15:31:26;1.42;;;0.63;;
31734;SDS011;18313;48.518;9.124;2023-04-23T15:33:53;1.92;;;0.60;;
31734;SDS011;18313;48.518;9.124;2023-04-23T15:36:22;1.40;;;0.70;;
31734;SDS011;18313;48.518;9.124;2023-04-23T15:38:49;2.15;;;0.90;;